Time;durP1;ratioP1;P1;durP2;ratioP2;P2;SDS_P1;SDS_P2;PMS_P1;PMS_P2;Temp;Humidity;BMP_temperature;BMP_pressure;BME280_temperature;BME280_humidity;BME280_pressure;Samples;Min_cycle;Max_cycle;Signal;HPM_P1;HPM_P2
2021/01/16 00:04:31;;;;;;;26.47;16.40;;;;;1.10;102534.00;;;;10440403;28;20186;-78
2021/01/16 00:09:33;;;;;;;26.03;16.83;;;;;1.10;102527.00;;;;10426968;28;20596;-78
2021/01/16 00:14:34;;;;;;;24.97;16.20;;;;;1.10;102523.00;;;;10423076;28;20203;-79
2021/01/16 00:19:35;;;;;;;29.20;18.30;;;;;1.10;102515.00;;;;10431803;28;20290;-79
2021/01/16 00:24:37;;;;;;;27.40;17.03;;;;;1.10;102508.00;;;;10400338;28;20213;-79
2021/01/16 00:29:46;;;;;;;29.33;16.33;;;;;1.10;102515.00;;;;10424864;28;20190;-79
2021/01/16 00:34:47;;;;;;;30.07;17.07;;;;;1.10;102515.00;;;;10469191;28;20216;-78
2021/01/16 00:39:49;;;;;;;28.53;17.30;;;;;1.10;102512.00;;;;10402754;28;20560;-79
2021/01/16 00:44:50;;;;;;;28.87;18.87;;;;;1.10;102497.00;;;;10402624;28;20226;-79
2021/01/16 00:49:52;;;;;;;29.73;18.63;;;;;1.10;102503.00;;;;10409141;28;20198;-78
2021/01/16 00:54:53;;;;;;;32.40;19.40;;;;;1.10;102504.00;;;;10433766;28;20550;-78
2021/01/16 00:59:55;;;;;;;29.63;18.47;;;;;1.10;102500.00;;;;10433391;28;20615;-79
2021/01/16 01:04:57;;;;;;;30.97;19.07;;;;;1.10;102495.00;;;;10447769;28;20190;-79
2021/01/16 01:09:58;;;;;;;29.33;18.37;;;;;1.10;102484.00;;;;10432520;28;20289;-78
2021/01/16 01:15:02;;;;;;;30.87;18.10;;;;;1.00;102482.00;;;;10408443;28;20207;-79
2021/01/16 01:20:04;;;;;;;35.30;20.13;;;;;1.00;102487.00;;;;10451580;28;20589;-78
2021/01/16 01:25:07;;;;;;;29.80;17.50;;;;;1.10;102486.00;;;;10419105;28;20183;-78
2021/01/16 01:30:10;;;;;;;29.43;19.57;;;;;1.00;102480.00;;;;10448916;28;20217;-78
2021/01/16 01:35:12;;;;;;;28.77;19.17;;;;;1.00;102485.00;;;;10430647;28;20713;-78
2021/01/16 01:40:15;;;;;;;35.77;20.30;;;;;1.10;102486.00;;;;10394289;28;20199;-78
2021/01/16 01:45:17;;;;;;;33.77;20.83;;;;;1.10;102477.00;;;;10428728;28;20222;-79
2021/01/16 01:50:20;;;;;;;32.67;19.20;;;;;1.00;102477.00;;;;10378392;28;20268;-79
2021/01/16 01:55:24;;;;;;;32.00;19.90;;;;;1.00;102479.00;;;;10434229;28;20206;-79
2021/01/16 02:00:26;;;;;;;35.57;19.20;;;;;1.00;102481.00;;;;10403755;28;20221;-78
2021/01/16 02:05:27;;;;;;;30.73;18.33;;;;;1.00;102476.00;;;;10397613;28;20209;-79
2021/01/16 02:10:29;;;;;;;28.40;18.80;;;;;1.00;102468.00;;;;10412465;28;20214;-79
2021/01/16 02:15:38;;;;;;;36.30;20.17;;;;;1.00;102486.00;;;;10375374;28;20261;-78
2021/01/16 02:20:43;;;;;;;29.80;18.70;;;;;1.00;102484.00;;;;10378762;28;20265;-79
2021/01/16 02:26:12;;;;;;;28.83;19.47;;;;;1.00;102469.00;;;;10412664;28;20182;-79
2021/01/16 02:31:15;;;;;;;30.57;19.43;;;;;1.00;102470.00;;;;10429396;28;20198;-79
2021/01/16 02:36:32;;;;;;;33.17;20.20;;;;;1.00;102467.00;;;;10445434;28;20217;-79
2021/01/16 02:41:48;;;;;;;31.33;19.13;;;;;1.00;102464.00;;;;10422632;28;20217;-79
2021/01/16 02:46:57;;;;;;;31.60;19.27;;;;;0.90;102446.00;;;;10411348;28;20206;-78
2021/01/16 02:52:06;;;;;;;35.80;20.33;;;;;0.90;102453.00;;;;10412268;28;20187;-79
2021/01/16 02:57:10;;;;;;;34.30;20.07;;;;;1.00;102447.00;;;;10396141;28;20207;-79
2021/01/16 03:02:13;;;;;;;32.93;20.33;;;;;1.00;102437.00;;;;10399694;28;20211;-78
2021/01/16 03:07:32;;;;;;;31.53;19.67;;;;;1.00;102428.00;;;;10396209;28;20281;-77
2021/01/16 03:13:02;;;;;;;35.47;20.37;;;;;0.90;102430.00;;;;10428287;28;20205;-78
2021/01/16 03:18:05;;;;;;;30.57;19.33;;;;;0.90;102425.00;;;;10408154;28;20500;-79
2021/01/16 03:23:06;;;;;;;37.40;22.73;;;;;0.90;102418.00;;;;10406794;28;20195;-79
2021/01/16 03:28:08;;;;;;;30.40;19.27;;;;;1.00;102410.00;;;;10407265;28;20190;-78
2021/01/16 03:33:09;;;;;;;33.53;19.57;;;;;0.90;102400.00;;;;10378007;28;20257;-78
2021/01/16 03:38:10;;;;;;;31.17;20.77;;;;;0.90;102400.00;;;;10404361;28;20213;-78
2021/01/16 03:43:12;;;;;;;30.93;20.00;;;;;1.00;102404.00;;;;10425664;28;20679;-79
2021/01/16 03:48:13;;;;;;;31.00;19.33;;;;;0.90;102396.00;;;;10406299;28;20195;-79
2021/01/16 03:53:14;;;;;;;31.40;18.63;;;;;0.90;102398.00;;;;10396663;28;20207;-79
2021/01/16 03:58:16;;;;;;;29.63;19.03;;;;;0.90;102390.00;;;;10389569;28;20198;-79
2021/01/16 04:03:17;;;;;;;28.53;18.00;;;;;1.00;102398.00;;;;10387871;28;20265;-79
2021/01/16 04:08:20;;;;;;;29.07;18.97;;;;;1.00;102398.00;;;;10420924;28;20292;-79
2021/01/16 04:13:22;;;;;;;29.40;18.63;;;;;1.00;102401.00;;;;10418527;28;20310;-79
2021/01/16 04:18:23;;;;;;;30.13;19.50;;;;;0.90;102393.00;;;;10419816;28;20198;-78
2021/01/16 04:23:25;;;;;;;31.67;19.97;;;;;0.90;102392.00;;;;10430131;28;20186;-78
2021/01/16 04:28:26;;;;;;;35.83;20.10;;;;;0.90;102381.00;;;;10432302;28;20194;-77
2021/01/16 04:33:27;;;;;;;30.67;18.87;;;;;0.90;102371.00;;;;10398344;28;20202;-77
2021/01/16 04:38:29;;;;;;;29.63;20.17;;;;;0.90;102375.00;;;;10394899;28;20332;-78
2021/01/16 04:43:30;;;;;;;28.23;17.57;;;;;0.90;102372.00;;;;10389670;28;20216;-78
2021/01/16 04:48:36;;;;;;;33.33;19.03;;;;;1.00;102361.00;;;;10417686;28;20210;-78
2021/01/16 04:53:40;;;;;;;30.07;18.77;;;;;1.00;102349.00;;;;10383391;28;20226;-78
2021/01/16 04:58:42;;;;;;;29.33;18.40;;;;;1.00;102345.00;;;;10402446;28;20230;-78
2021/01/16 05:03:43;;;;;;;34.63;19.50;;;;;1.00;102324.00;;;;10436209;28;20675;-78
2021/01/16 05:08:46;;;;;;;29.17;18.30;;;;;1.00;102318.00;;;;10414487;28;20202;-78
2021/01/16 05:13:56;;;;;;;30.43;18.93;;;;;1.00;102312.00;;;;10402884;28;20214;-78
2021/01/16 05:18:57;;;;;;;29.47;17.60;;;;;1.00;102302.00;;;;10416901;28;20226;-78
2021/01/16 05:23:59;;;;;;;26.70;17.77;;;;;1.00;102296.00;;;;10391793;28;20191;-78
2021/01/16 05:29:04;;;;;;;29.87;18.57;;;;;0.90;102292.00;;;;10446483;28;20191;-78
2021/01/16 05:34:06;;;;;;;26.97;17.10;;;;;0.90;102296.00;;;;10445800;28;20608;-78
2021/01/16 05:39:10;;;;;;;27.27;17.70;;;;;0.90;102290.00;;;;10416352;28;20190;-77
2021/01/16 05:44:13;;;;;;;30.57;18.60;;;;;0.90;102282.00;;;;10427055;28;20209;-79
2021/01/16 05:49:16;;;;;;;27.63;17.83;;;;;0.90;102278.00;;;;10456551;28;20221;-78
2021/01/16 05:54:19;;;;;;;31.67;17.57;;;;;0.90;102271.00;;;;10412753;28;20206;-78
2021/01/16 05:59:20;;;;;;;32.30;18.47;;;;;0.90;102273.00;;;;10386551;28;20206;-77
2021/01/16 06:04:22;;;;;;;30.13;18.43;;;;;0.80;102265.00;;;;10388652;28;20195;-78
2021/01/16 06:09:23;;;;;;;29.47;17.50;;;;;0.90;102267.00;;;;10410587;28;20225;-78
2021/01/16 06:14:26;;;;;;;32.00;17.87;;;;;0.80;102264.00;;;;10444923;28;20240;-78
2021/01/16 06:19:27;;;;;;;29.27;18.23;;;;;0.90;102263.00;;;;10450676;28;20248;-78
2021/01/16 06:24:35;;;;;;;29.30;17.27;;;;;0.90;102257.00;;;;10449296;28;20190;-78
2021/01/16 06:29:37;;;;;;;30.67;16.60;;;;;0.80;102248.00;;;;10435264;28;20194;-78
2021/01/16 06:34:41;;;;;;;30.03;16.90;;;;;0.80;102257.00;;;;10441730;28;20293;-79
2021/01/16 06:39:45;;;;;;;27.93;16.57;;;;;0.80;102247.00;;;;10383614;28;20193;-78
2021/01/16 06:44:48;;;;;;;29.43;17.87;;;;;0.70;102238.00;;;;10425546;28;20210;-79
2021/01/16 06:49:58;;;;;;;24.33;15.80;;;;;0.70;102229.00;;;;10402677;28;20202;-77
2021/01/16 06:55:00;;;;;;;24.37;14.83;;;;;0.70;102223.00;;;;10423760;28;20535;-78
2021/01/16 07:00:23;;;;;;;20.97;13.23;;;;;0.80;102217.00;;;;10416421;28;20360;-77
2021/01/16 07:05:25;;;;;;;20.27;12.67;;;;;0.80;102217.00;;;;10439909;28;20182;-78
2021/01/16 07:10:30;;;;;;;25.33;13.43;;;;;0.70;102206.00;;;;10437394;28;20207;-78
2021/01/16 07:15:31;;;;;;;21.67;12.60;;;;;0.70;102209.00;;;;10410290;28;20249;-78
2021/01/16 07:20:39;;;;;;;20.27;12.83;;;;;0.80;102201.00;;;;10410275;28;20178;-78
2021/01/16 07:25:41;;;;;;;21.07;11.53;;;;;0.80;102192.00;;;;10449343;28;20236;-78
2021/01/16 07:30:43;;;;;;;20.93;11.47;;;;;0.80;102192.00;;;;10375277;28;20201;-78
2021/01/16 07:35:51;;;;;;;18.77;10.67;;;;;0.80;102203.00;;;;10457550;28;20210;-78
2021/01/16 07:40:56;;;;;;;16.90;10.07;;;;;0.90;102207.00;;;;10383243;28;20197;-78
2021/01/16 07:46:05;;;;;;;17.33;9.27;;;;;0.90;102200.00;;;;10402351;28;20613;-78
2021/01/16 07:51:07;;;;;;;14.23;9.07;;;;;1.00;102203.00;;;;10427851;28;20222;-78
2021/01/16 07:56:42;;;;;;;15.67;8.77;;;;;1.00;102198.00;;;;10379450;28;20268;-78
2021/01/16 08:01:58;;;;;;;13.63;8.50;;;;;1.00;102195.00;;;;10426206;28;20202;-77
2021/01/16 08:07:09;;;;;;;13.13;7.83;;;;;1.10;102191.00;;;;10423181;28;20608;-77
2021/01/16 08:12:12;;;;;;;13.03;7.73;;;;;1.10;102182.00;;;;10403829;28;20195;-78
2021/01/16 08:17:46;;;;;;;14.30;7.60;;;;;1.20;102180.00;;;;10424428;28;20677;-78
2021/01/16 08:22:52;;;;;;;10.10;6.97;;;;;1.20;102168.00;;;;10426499;28;20190;-79
2021/01/16 08:27:57;;;;;;;10.23;6.87;;;;;1.30;102160.00;;;;10412644;28;20198;-78
2021/01/16 08:33:05;;;;;;;10.03;6.53;;;;;1.50;102155.00;;;;10407171;28;20612;-78
2021/01/16 08:38:18;;;;;;;9.87;6.07;;;;;1.70;102155.00;;;;10434806;28;20190;-77
2021/01/16 08:43:36;;;;;;;11.37;7.00;;;;;1.80;102143.00;;;;10433753;28;20238;-77
2021/01/16 08:48:39;;;;;;;14.73;8.33;;;;;1.90;102139.00;;;;10460410;28;20653;-78
2021/01/16 08:53:41;;;;;;;12.27;8.00;;;;;2.00;102147.00;;;;10428708;28;20269;-78
2021/01/16 08:58:43;;;;;;;14.23;8.43;;;;;2.00;102140.00;;;;10413941;28;20199;-77
2021/01/16 09:03:44;;;;;;;10.97;6.97;;;;;2.10;102136.00;;;;10412534;28;20206;-77
2021/01/16 09:08:46;;;;;;;13.93;7.70;;;;;2.10;102142.00;;;;10441564;28;20900;-78
2021/01/16 09:13:58;;;;;;;11.10;7.37;;;;;2.20;102129.00;;;;10432243;28;20206;-78
2021/01/16 09:19:00;;;;;;;10.67;7.23;;;;;2.20;102125.00;;;;10433675;28;20628;-78
2021/01/16 09:24:06;;;;;;;11.80;7.93;;;;;2.30;102125.00;;;;10453185;28;20225;-78
2021/01/16 09:29:07;;;;;;;18.57;6.57;;;;;2.30;102126.00;;;;10425519;28;20693;-78
2021/01/16 09:34:17;;;;;;;11.07;7.07;;;;;2.30;102122.00;;;;10417202;28;20241;-78
2021/01/16 09:39:26;;;;;;;10.93;6.63;;;;;2.30;102131.00;;;;10406208;28;20293;-77
2021/01/16 09:44:43;;;;;;;11.77;7.43;;;;;2.30;102136.00;;;;10376442;28;20218;-78
2021/01/16 09:49:44;;;;;;;11.97;7.00;;;;;2.30;102127.00;;;;10419778;28;20274;-78
2021/01/16 09:54:48;;;;;;;10.47;7.30;;;;;2.40;102130.00;;;;10437516;28;20268;-78
2021/01/16 10:00:10;;;;;;;11.30;6.90;;;;;2.40;102121.00;;;;10421295;28;20230;-78
2021/01/16 10:05:14;;;;;;;17.13;9.27;;;;;2.40;102106.00;;;;10425235;28;20193;-78
2021/01/16 10:10:20;;;;;;;18.00;8.63;;;;;2.40;102094.00;;;;10399342;28;20191;-78
2021/01/16 10:15:25;;;;;;;16.13;9.57;;;;;2.40;102089.00;;;;10389261;28;20246;-77
2021/01/16 10:20:34;;;;;;;14.77;9.63;;;;;2.30;102087.00;;;;10435091;28;20257;-78
2021/01/16 10:25:37;;;;;;;13.80;8.40;;;;;2.30;102088.00;;;;10447454;28;20191;-78
2021/01/16 10:31:04;;;;;;;17.97;8.30;;;;;2.30;102078.00;;;;10424239;28;20249;-78
2021/01/16 10:36:08;;;;;;;15.97;9.63;;;;;2.30;102082.00;;;;10425947;28;20553;-78
2021/01/16 10:41:11;;;;;;;14.37;10.33;;;;;2.20;102066.00;;;;10425118;28;20194;-78
2021/01/16 10:46:22;;;;;;;14.93;9.13;;;;;2.20;102058.00;;;;10415052;28;20210;-78
2021/01/16 10:51:23;;;;;;;15.00;8.13;;;;;2.30;102049.00;;;;10422933;28;20214;-78
2021/01/16 10:56:26;;;;;;;14.10;9.17;;;;;2.30;102050.00;;;;10415671;28;20626;-78
2021/01/16 11:01:48;;;;;;;15.77;9.30;;;;;2.30;102034.00;;;;10440662;28;20244;-78
2021/01/16 11:06:52;;;;;;;18.47;9.77;;;;;2.20;102022.00;;;;10454820;28;20190;-78
2021/01/16 11:11:55;;;;;;;15.03;9.93;;;;;2.20;102018.00;;;;10373904;28;20194;-78
2021/01/16 11:16:58;;;;;;;18.70;10.30;;;;;2.20;102009.00;;;;10420953;28;20207;-78
2021/01/16 11:22:10;;;;;;;14.00;7.73;;;;;2.30;102000.00;;;;10420625;28;20218;-78
2021/01/16 11:27:16;;;;;;;14.03;8.63;;;;;2.30;101979.00;;;;10397048;28;20221;-77
2021/01/16 11:32:22;;;;;;;15.30;8.00;;;;;2.30;101957.00;;;;10432570;28;20190;-77
2021/01/16 11:37:42;;;;;;;15.27;8.93;;;;;2.30;101944.00;;;;10445142;28;20214;-78
2021/01/16 11:42:50;;;;;;;16.30;9.03;;;;;2.30;101932.00;;;;10420063;28;20244;-78
2021/01/16 11:47:56;;;;;;;17.50;10.43;;;;;2.30;101911.00;;;;10405386;28;20199;-78
2021/01/16 11:53:11;;;;;;;13.67;9.43;;;;;2.30;101896.00;;;;10411179;28;20257;-78
2021/01/16 11:58:13;;;;;;;16.20;9.60;;;;;2.20;101877.00;;;;10416108;28;20649;-78
2021/01/16 12:03:16;;;;;;;16.87;10.07;;;;;2.20;101873.00;;;;10419041;28;20209;-78
2021/01/16 12:08:21;;;;;;;15.80;9.87;;;;;2.10;101856.00;;;;10416758;28;20226;-78
2021/01/16 12:13:23;;;;;;;16.80;11.73;;;;;2.00;101845.00;;;;10416664;28;20210;-78
2021/01/16 12:18:26;;;;;;;17.50;10.37;;;;;2.10;101835.00;;;;10454599;28;20191;-78
2021/01/16 12:23:39;;;;;;;19.03;12.20;;;;;2.10;101823.00;;;;10437733;28;20829;-78
2021/01/16 12:28:46;;;;;;;17.83;11.50;;;;;2.10;101820.00;;;;10425971;28;20186;-79
2021/01/16 12:33:49;;;;;;;17.00;10.83;;;;;2.00;101804.00;;;;10426704;28;20613;-78
2021/01/16 12:38:51;;;;;;;21.37;13.23;;;;;2.00;101788.00;;;;10443882;28;20206;-78
2021/01/16 12:43:53;;;;;;;20.80;12.13;;;;;1.90;101776.00;;;;10438151;28;20218;-78
2021/01/16 12:48:55;;;;;;;22.37;13.20;;;;;1.90;101772.00;;;;10439975;28;20191;-78
2021/01/16 12:53:56;;;;;;;21.00;13.57;;;;;1.80;101758.00;;;;10423179;28;20210;-77
2021/01/16 12:58:57;;;;;;;23.23;14.13;;;;;1.80;101752.00;;;;10427482;28;20241;-78
2021/01/16 13:04:00;;;;;;;22.30;13.97;;;;;1.70;101741.00;;;;10448375;28;20544;-78
2021/01/16 13:09:06;;;;;;;20.90;12.80;;;;;1.70;101732.00;;;;10418995;28;20668;-78
2021/01/16 13:14:07;;;;;;;22.70;12.77;;;;;1.60;101732.00;;;;10404515;28;20230;-77
2021/01/16 13:19:09;;;;;;;21.47;13.10;;;;;1.40;101716.00;;;;10440069;28;20194;-78
2021/01/16 13:24:21;;;;;;;25.73;15.63;;;;;1.20;101714.00;;;;10426113;28;20580;-77
2021/01/16 13:29:23;;;;;;;21.60;12.83;;;;;0.90;101710.00;;;;10424369;28;20597;-77
2021/01/16 13:34:26;;;;;;;29.47;16.17;;;;;0.70;101707.00;;;;10426016;28;20321;-77
2021/01/16 13:39:33;;;;;;;28.73;15.80;;;;;0.60;101688.00;;;;10443175;28;20232;-78
2021/01/16 13:44:35;;;;;;;32.87;17.40;;;;;0.50;101675.00;;;;10459036;28;20237;-77
2021/01/16 13:49:37;;;;;;;33.57;17.33;;;;;0.40;101673.00;;;;10416415;28;20277;-78
2021/01/16 13:54:40;;;;;;;32.60;16.50;;;;;0.30;101659.00;;;;10407489;28;20241;-78
2021/01/16 13:59:41;;;;;;;33.63;18.53;;;;;0.30;101653.00;;;;10424029;28;20202;-78
2021/01/16 14:04:43;;;;;;;35.83;18.37;;;;;0.20;101648.00;;;;10427310;28;20190;-78
2021/01/16 14:09:44;;;;;;;31.13;17.20;;;;;0.20;101639.00;;;;10407477;28;20237;-77
2021/01/16 14:14:47;;;;;;;30.00;16.53;;;;;0.20;101628.00;;;;10418192;28;20206;-78
2021/01/16 14:20:04;;;;;;;28.53;15.97;;;;;0.20;101619.00;;;;10426887;28;20187;-78
2021/01/16 14:25:08;;;;;;;40.93;22.53;;;;;0.20;101617.00;;;;10409895;28;20196;-78
2021/01/16 14:30:17;;;;;;;40.03;21.93;;;;;0.20;101590.00;;;;10409721;28;20642;-78
2021/01/16 14:35:20;;;;;;;40.77;21.03;;;;;0.20;101569.00;;;;10439599;28;20233;-78
2021/01/16 14:40:35;;;;;;;38.60;19.60;;;;;0.10;101558.00;;;;10427557;28;20194;-78
2021/01/16 14:45:38;;;;;;;43.67;23.53;;;;;0.10;101538.00;;;;10418028;28;20217;-78
2021/01/16 14:50:40;;;;;;;38.03;22.37;;;;;0.10;101535.00;;;;10455247;28;20617;-77
2021/01/16 14:55:59;;;;;;;40.47;22.27;;;;;0.10;101521.00;;;;10423709;28;20352;-78
2021/01/16 15:01:04;;;;;;;53.67;26.23;;;;;0.10;101503.00;;;;10401868;28;20217;-78
2021/01/16 15:06:07;;;;;;;51.20;28.73;;;;;0.10;101482.00;;;;10424381;28;20198;-77
2021/01/16 15:11:12;;;;;;;40.77;21.57;;;;;0.20;101465.00;;;;10455922;28;20194;-77
2021/01/16 15:16:14;;;;;;;39.70;20.20;;;;;0.10;101462.00;;;;10435098;28;20693;-77
2021/01/16 15:21:15;;;;;;;35.50;18.73;;;;;0.10;101442.00;;;;10417256;28;20201;-77
2021/01/16 15:26:17;;;;;;;37.70;20.97;;;;;0.10;101435.00;;;;10418959;28;20194;-77
2021/01/16 15:31:20;;;;;;;38.80;20.10;;;;;0.00;101425.00;;;;10363417;28;20253;-77
2021/01/16 15:36:22;;;;;;;41.87;23.20;;;;;0.00;101419.00;;;;10402000;28;20211;-78
2021/01/16 15:41:38;;;;;;;42.67;20.93;;;;;0.00;101422.00;;;;10386905;28;20626;-77
2021/01/16 15:46:40;;;;;;;46.10;24.27;;;;;0.00;101396.00;;;;10419122;28;20257;-78
2021/01/16 15:51:42;;;;;;;38.17;21.80;;;;;-0.10;101393.00;;;;10395965;28;20197;-77
2021/01/16 15:56:51;;;;;;;44.87;25.13;;;;;-0.10;101388.00;;;;10392173;28;20205;-78
2021/01/16 16:01:52;;;;;;;48.03;21.50;;;;;-0.10;101383.00;;;;10420009;28;20568;-78
2021/01/16 16:07:03;;;;;;;42.83;20.23;;;;;-0.10;101366.00;;;;10400942;28;20646;-77
2021/01/16 16:12:11;;;;;;;44.97;24.13;;;;;-0.10;101370.00;;;;10448278;28;20191;-78
2021/01/16 16:17:13;;;;;;;39.67;20.13;;;;;0.00;101350.00;;;;10400101;28;20578;-78
2021/01/16 16:22:15;;;;;;;43.40;23.70;;;;;-0.10;101341.00;;;;10403493;28;20191;-77
2021/01/16 16:27:16;;;;;;;42.03;22.30;;;;;-0.10;101349.00;;;;10399240;28;20201;-77
2021/01/16 16:32:18;;;;;;;45.20;24.30;;;;;-0.10;101337.00;;;;10404749;28;20322;-78
2021/01/16 16:37:19;;;;;;;42.97;22.70;;;;;-0.10;101318.00;;;;10425439;28;20209;-78
2021/01/16 16:42:21;;;;;;;41.60;20.97;;;;;-0.10;101321.00;;;;10431012;28;20194;-77
2021/01/16 16:47:22;;;;;;;37.77;19.23;;;;;-0.10;101313.00;;;;10431259;28;20187;-78
2021/01/16 16:52:24;;;;;;;37.37;21.23;;;;;-0.10;101298.00;;;;10395210;28;20550;-78
2021/01/16 16:57:27;;;;;;;30.87;17.63;;;;;-0.10;101298.00;;;;10401172;28;20202;-78
2021/01/16 17:02:29;;;;;;;38.93;19.00;;;;;-0.10;101297.00;;;;10411627;28;20214;-78
2021/01/16 17:07:32;;;;;;;37.43;21.00;;;;;-0.10;101287.00;;;;10396812;28;20195;-78
2021/01/16 17:12:34;;;;;;;43.60;22.30;;;;;0.00;101280.00;;;;10395543;28;20202;-78
2021/01/16 17:17:37;;;;;;;38.97;21.20;;;;;0.00;101271.00;;;;10425341;28;20260;-78
2021/01/16 17:22:40;;;;;;;41.17;22.10;;;;;-0.10;101279.00;;;;10430855;28;20624;-78
2021/01/16 17:27:44;;;;;;;44.97;24.10;;;;;0.00;101284.00;;;;10446023;28;20209;-78
2021/01/16 17:32:55;;;;;;;41.00;20.53;;;;;0.00;101274.00;;;;10417143;28;20195;-78
2021/01/16 17:38:02;;;;;;;43.67;20.97;;;;;0.00;101259.00;;;;10404433;28;20213;-78
2021/01/16 17:43:04;;;;;;;42.37;22.47;;;;;0.00;101260.00;;;;10412556;28;20593;-78
2021/01/16 17:48:06;;;;;;;40.73;22.33;;;;;0.00;101266.00;;;;10408366;28;20252;-78
2021/01/16 17:53:07;;;;;;;43.57;23.30;;;;;0.00;101264.00;;;;10376003;28;20225;-78
2021/01/16 17:58:08;;;;;;;41.87;23.80;;;;;0.00;101258.00;;;;10421405;28;20202;-79
2021/01/16 18:03:10;;;;;;;35.53;19.10;;;;;0.00;101258.00;;;;10409297;28;20229;-77
2021/01/16 18:08:11;;;;;;;36.50;20.50;;;;;0.10;101257.00;;;;10387299;28;20226;-78
2021/01/16 18:13:12;;;;;;;42.57;23.43;;;;;0.10;101253.00;;;;10385844;28;20199;-78
2021/01/16 18:18:16;;;;;;;38.13;20.97;;;;;0.10;101242.00;;;;10417042;28;20207;-77
2021/01/16 18:23:17;;;;;;;37.60;18.63;;;;;0.10;101241.00;;;;10412341;28;20252;-78
2021/01/16 18:28:19;;;;;;;33.43;18.87;;;;;0.10;101246.00;;;;10385498;28;20191;-78
2021/01/16 18:33:22;;;;;;;36.20;21.23;;;;;0.10;101238.00;;;;10377877;28;20199;-79
2021/01/16 18:38:23;;;;;;;34.30;18.73;;;;;0.20;101236.00;;;;10392500;28;20760;-78
2021/01/16 18:43:24;;;;;;;31.87;17.50;;;;;0.20;101216.00;;;;10427004;28;20221;-79
2021/01/16 18:48:26;;;;;;;34.03;19.53;;;;;0.20;101210.00;;;;10418156;28;20195;-78
2021/01/16 18:53:28;;;;;;;29.80;17.50;;;;;0.20;101225.00;;;;10441431;28;20190;-78
2021/01/16 18:58:29;;;;;;;30.50;18.33;;;;;0.20;101227.00;;;;10415710;28;20238;-79
2021/01/16 19:03:31;;;;;;;28.17;15.90;;;;;0.20;101220.00;;;;10435530;28;20217;-77
2021/01/16 19:08:32;;;;;;;28.77;15.93;;;;;0.20;101214.00;;;;10420034;28;20695;-78
2021/01/16 19:13:36;;;;;;;25.90;16.03;;;;;0.20;101213.00;;;;10384460;28;20709;-79
2021/01/16 19:18:37;;;;;;;28.07;16.27;;;;;0.20;101210.00;;;;10401573;28;20193;-78
2021/01/16 19:23:39;;;;;;;27.93;15.97;;;;;0.20;101214.00;;;;10405255;28;20225;-77
2021/01/16 19:28:40;;;;;;;27.17;16.47;;;;;0.30;101211.00;;;;10399876;28;20253;-77
2021/01/16 19:33:42;;;;;;;29.03;16.17;;;;;0.30;101210.00;;;;10393966;28;20320;-78
2021/01/16 19:38:43;;;;;;;28.13;15.13;;;;;0.30;101202.00;;;;10415408;28;20203;-78
2021/01/16 19:43:45;;;;;;;27.10;16.40;;;;;0.30;101196.00;;;;10382338;28;20210;-77
2021/01/16 19:48:47;;;;;;;25.10;14.67;;;;;0.30;101192.00;;;;10397201;28;20186;-78
2021/01/16 19:53:48;;;;;;;25.07;13.63;;;;;0.30;101193.00;;;;10391033;28;20196;-78
2021/01/16 19:58:50;;;;;;;26.70;13.63;;;;;0.40;101182.00;;;;10424827;28;20738;-78
2021/01/16 20:03:51;;;;;;;25.43;15.03;;;;;0.40;101186.00;;;;10394131;28;20199;-78
2021/01/16 20:08:53;;;;;;;23.97;13.40;;;;;0.40;101174.00;;;;10394872;28;20202;-78
2021/01/16 20:13:54;;;;;;;22.97;15.23;;;;;0.40;101172.00;;;;10417368;28;20245;-78
2021/01/16 20:18:56;;;;;;;21.77;14.27;;;;;0.40;101178.00;;;;10414836;28;20660;-77
2021/01/16 20:23:58;;;;;;;23.73;13.90;;;;;0.50;101183.00;;;;10407455;28;20716;-78
2021/01/16 20:28:59;;;;;;;20.07;13.03;;;;;0.50;101180.00;;;;10390745;28;20579;-78
2021/01/16 20:34:03;;;;;;;20.70;13.60;;;;;0.50;101194.00;;;;10414760;28;20211;-78
2021/01/16 20:39:05;;;;;;;20.93;13.80;;;;;0.50;101186.00;;;;10389686;28;20199;-77
2021/01/16 20:44:07;;;;;;;21.47;12.53;;;;;0.50;101187.00;;;;10403062;28;20244;-77
2021/01/16 20:49:08;;;;;;;19.87;13.07;;;;;0.50;101189.00;;;;10413775;28;20252;-78
2021/01/16 20:54:10;;;;;;;23.50;14.13;;;;;0.50;101196.00;;;;10424295;28;20211;-77
2021/01/16 20:59:11;;;;;;;27.30;13.73;;;;;0.50;101196.00;;;;10416260;28;20195;-77
2021/01/16 21:04:12;;;;;;;23.37;12.83;;;;;0.50;101187.00;;;;10395714;28;20702;-77
2021/01/16 21:09:13;;;;;;;20.87;12.63;;;;;0.50;101185.00;;;;10420446;28;20225;-78
2021/01/16 21:14:15;;;;;;;20.67;13.17;;;;;0.50;101181.00;;;;10446595;28;20293;-77
2021/01/16 21:19:16;;;;;;;17.57;11.60;;;;;0.60;101181.00;;;;10464803;28;20201;-77
2021/01/16 21:24:17;;;;;;;17.20;11.57;;;;;0.60;101176.00;;;;10413383;28;20241;-77
2021/01/16 21:29:19;;;;;;;18.53;10.50;;;;;0.60;101172.00;;;;10413106;28;20257;-77
2021/01/16 21:34:21;;;;;;;17.03;11.53;;;;;0.60;101169.00;;;;10435372;28;20255;-77
2021/01/16 21:39:22;;;;;;;15.33;11.03;;;;;0.60;101183.00;;;;10478137;28;20668;-76
2021/01/16 21:44:24;;;;;;;15.17;10.53;;;;;0.60;101172.00;;;;10435398;28;20682;-76
2021/01/16 21:49:25;;;;;;;15.47;11.10;;;;;0.60;101173.00;;;;10399500;28;20642;-76
2021/01/16 21:54:27;;;;;;;17.53;11.27;;;;;0.60;101165.00;;;;10453729;28;20202;-76
2021/01/16 21:59:29;;;;;;;14.13;10.53;;;;;0.60;101151.00;;;;10399575;28;20194;-76
2021/01/16 22:04:30;;;;;;;16.83;11.20;;;;;0.60;101150.00;;;;10410464;28;20199;-76
2021/01/16 22:09:31;;;;;;;16.60;11.57;;;;;0.70;101151.00;;;;10433163;28;20281;-76
2021/01/16 22:14:32;;;;;;;16.73;11.30;;;;;0.70;101132.00;;;;10448177;28;20256;-76
2021/01/16 22:19:34;;;;;;;14.80;10.47;;;;;0.60;101127.00;;;;10433676;28;20187;-76
2021/01/16 22:24:36;;;;;;;14.57;10.03;;;;;0.70;101140.00;;;;10427194;28;20182;-76
2021/01/16 22:29:37;;;;;;;18.97;12.30;;;;;0.70;101137.00;;;;10417323;28;20214;-76
2021/01/16 22:34:38;;;;;;;27.87;13.50;;;;;0.70;101127.00;;;;10426795;28;20275;-75
2021/01/16 22:39:40;;;;;;;19.43;12.27;;;;;0.70;101119.00;;;;10423126;28;20247;-76
2021/01/16 22:44:41;;;;;;;19.90;12.10;;;;;0.70;101119.00;;;;10456281;28;20681;-75
2021/01/16 22:49:42;;;;;;;14.67;10.30;;;;;0.80;101118.00;;;;10422318;28;20220;-75
2021/01/16 22:54:43;;;;;;;18.30;12.13;;;;;0.80;101122.00;;;;10394728;28;20238;-75
2021/01/16 22:59:45;;;;;;;18.03;11.63;;;;;0.80;101128.00;;;;10456607;28;20210;-75
2021/01/16 23:04:46;;;;;;;15.93;11.40;;;;;0.80;101133.00;;;;10476042;28;20283;-75
2021/01/16 23:09:48;;;;;;;16.80;11.63;;;;;0.80;101129.00;;;;10403529;28;20599;-75
2021/01/16 23:14:49;;;;;;;18.07;12.30;;;;;0.90;101107.00;;;;10428167;28;20231;-75
2021/01/16 23:19:50;;;;;;;18.43;11.73;;;;;0.90;101111.00;;;;10381170;28;20221;-75
2021/01/16 23:24:53;;;;;;;16.03;11.13;;;;;0.90;101093.00;;;;10416637;28;20399;-75
2021/01/16 23:29:54;;;;;;;20.37;13.17;;;;;0.90;101094.00;;;;10436828;28;20645;-75
2021/01/16 23:34:55;;;;;;;19.67;12.50;;;;;0.90;101092.00;;;;10404864;28;20653;-75
2021/01/16 23:39:56;;;;;;;17.17;12.23;;;;;0.90;101095.00;;;;10430051;28;20214;-76
2021/01/16 23:44:58;;;;;;;19.87;12.50;;;;;1.00;101083.00;;;;10454034;28;20218;-76
2021/01/16 23:49:59;;;;;;;20.17;12.77;;;;;1.00;101085.00;;;;10438256;28;20224;-76
2021/01/16 23:55:03;;;;;;;18.97;12.63;;;;;1.00;101076.00;;;;10415512;28;20626;-76
